LCRA/AKT METAR and TAF weather

Enter ICAO airport designator
Station Type Date Time Source
LCRA METAR 2020/02/26 08:50 UTC NOAA

LCRA 260850Z 26009KT 9999 FEW022 17/11 Q1019 NOSIG RMK BLU BLU


Station Type Date Time Source
LCRA Decoded METAR 2020/02/26 08:50 UTC NOAA

Akrotiri, Cyprus (LCRA) 34-35N 032-59E 0M
Feb 26, 2020 - 03:50 AM EST / 2020.02.26 0850 UTC
Wind: from the W (260 degrees) at 10 MPH (9 KT):0
Visibility: greater than 7 mile(s):0
Sky conditions: mostly clear
Temperature: 62 F (17 C)
Dew Point: 51 F (11 C)
Relative Humidity: 67%
Pressure (altimeter): 30.09 in. Hg (1019 hPa)
ob: LCRA 260850Z 26009KT 9999 FEW022 17/11 Q1019 NOSIG RMK BLU BLU
cycle: 9

Station Type Date Time Source
LCRA TAF 2020/02/26 09:34 UTC NOAA

TAF LCRA 260722Z 2609/2703 25012KT 9999 FEW020 PROB30
TEMPO 2609/2615 26015G25KT
BECMG 2618/2621 01004KT

Example: see airport list